sensor_id;sensor_type;location;lat;lon;timestamp;pressure;altitude;pressure_sealevel;temperature;humidity
6136;BME280;24008;42.664;23.372;2024-03-23T00:53:53;94734.59;;;3.36;64.22
6136;BME280;24008;42.664;23.372;2024-03-23T00:56:20;94791.56;;;3.67;65.07
6136;BME280;24008;42.664;23.372;2024-03-23T00:58:46;94787.41;;;3.66;64.37
6136;BME280;24008;42.664;23.372;2024-03-23T01:01:13;94791.75;;;3.63;64.33
6136;BME280;24008;42.664;23.372;2024-03-23T01:03:39;94786.00;;;3.61;65.18
6136;BME280;24008;42.664;23.372;2024-03-23T01:06:06;94780.25;;;3.59;64.83
6136;BME280;24008;42.664;23.372;2024-03-23T01:08:32;94774.66;;;3.54;65.50
6136;BME280;24008;42.664;23.372;2024-03-23T01:11:01;94776.19;;;3.57;64.48
6136;BME280;24008;42.664;23.372;2024-03-23T01:13:28;94783.03;;;3.55;65.33
6136;BME280;24008;42.664;23.372;2024-03-23T01:15:56;94778.09;;;3.53;64.98
6136;BME280;24008;42.664;23.372;2024-03-23T01:18:23;94709.38;;;3.09;64.90
6136;BME280;24008;42.664;23.372;2024-03-23T01:20:51;94777.59;;;3.48;65.60
6136;BME280;24008;42.664;23.372;2024-03-23T01:23:17;94808.28;;;3.42;65.49
6136;BME280;24008;42.664;23.372;2024-03-23T01:25:51;94670.56;;;2.70;66.04
6136;BME280;24008;42.664;23.372;2024-03-23T01:28:18;94808.66;;;3.36;65.90
6136;BME280;24008;42.664;23.372;2024-03-23T01:30:45;94775.13;;;3.34;66.15
6136;BME280;24008;42.664;23.372;2024-03-23T01:33:11;94678.31;;;2.67;66.48
6136;BME280;24008;42.664;23.372;2024-03-23T01:35:37;94779.13;;;3.24;66.58
6136;BME280;24008;42.664;23.372;2024-03-23T01:38:03;94782.66;;;3.21;67.04
6136;BME280;24008;42.664;23.372;2024-03-23T01:40:31;94782.75;;;3.20;67.06
6136;BME280;24008;42.664;23.372;2024-03-23T01:42:58;94765.00;;;3.07;65.80
6136;BME280;24008;42.664;23.372;2024-03-23T01:45:26;94777.19;;;3.28;65.26
6136;BME280;24008;42.664;23.372;2024-03-23T01:47:52;94739.66;;;3.09;65.35
6136;BME280;24008;42.664;23.372;2024-03-23T01:50:19;94747.16;;;3.10;65.23
6136;BME280;24008;42.664;23.372;2024-03-23T01:52:47;94759.09;;;3.21;64.97
6136;BME280;24008;42.664;23.372;2024-03-23T01:55:12;94776.91;;;3.32;65.68
6136;BME280;24008;42.664;23.372;2024-03-23T01:57:39;94777.81;;;3.31;65.20
6136;BME280;24008;42.664;23.372;2024-03-23T02:00:06;94780.53;;;3.28;64.76
6136;BME280;24008;42.664;23.372;2024-03-23T02:02:35;94777.28;;;3.26;64.42
6136;BME280;24008;42.664;23.372;2024-03-23T02:05:01;94776.28;;;3.29;64.83
6136;BME280;24008;42.664;23.372;2024-03-23T02:07:27;94782.16;;;3.29;63.98
6136;BME280;24008;42.664;23.372;2024-03-23T02:09:53;94780.53;;;3.28;64.31
6136;BME280;24008;42.664;23.372;2024-03-23T02:12:21;94785.81;;;3.25;64.51
6136;BME280;24008;42.664;23.372;2024-03-23T02:14:47;94650.09;;;2.34;64.58
6136;BME280;24008;42.664;23.372;2024-03-23T02:17:14;94779.13;;;3.24;64.29
6136;BME280;24008;42.664;23.372;2024-03-23T02:19:41;94750.13;;;3.03;64.94
6136;BME280;24008;42.664;23.372;2024-03-23T02:22:08;94706.97;;;2.66;65.28
6136;BME280;24008;42.664;23.372;2024-03-23T02:24:37;94789.53;;;3.05;65.36
6136;BME280;24008;42.664;23.372;2024-03-23T02:27:04;94783.97;;;3.00;65.40
6136;BME280;24008;42.664;23.372;2024-03-23T02:29:29;94786.06;;;2.94;65.47
6136;BME280;24008;42.664;23.372;2024-03-23T02:31:56;94792.09;;;2.91;65.61
6136;BME280;24008;42.664;23.372;2024-03-23T02:34:24;94785.41;;;2.90;65.55
6136;BME280;24008;42.664;23.372;2024-03-23T02:36:50;94786.06;;;2.94;65.54
6136;BME280;24008;42.664;23.372;2024-03-23T02:39:16;94735.81;;;2.62;65.40
6136;BME280;24008;42.664;23.372;2024-03-23T02:41:44;94783.34;;;2.97;65.25
6136;BME280;24008;42.664;23.372;2024-03-23T02:44:10;94786.88;;;2.94;65.76
6136;BME280;24008;42.664;23.372;2024-03-23T02:46:37;94778.56;;;2.92;66.01
6136;BME280;24008;42.664;23.372;2024-03-23T02:49:03;94774.41;;;2.91;65.80
6136;BME280;24008;42.664;23.372;2024-03-23T02:51:30;94737.44;;;2.63;66.42
6136;BME280;24008;42.664;23.372;2024-03-23T02:53:55;94776.34;;;2.87;66.51
6136;BME280;24008;42.664;23.372;2024-03-23T02:56:22;94725.94;;;2.45;66.32
6136;BME280;24008;42.664;23.372;2024-03-23T02:59:19;94775.47;;;2.74;66.89
6136;BME280;24008;42.664;23.372;2024-03-23T03:01:45;94815.28;;;2.69;66.93
6136;BME280;24008;42.664;23.372;2024-03-23T03:04:11;94784.50;;;2.64;67.17
6136;BME280;24008;42.664;23.372;2024-03-23T03:06:38;94717.94;;;2.24;66.86
6136;BME280;24008;42.664;23.372;2024-03-23T03:09:04;94735.69;;;2.37;67.62
6136;BME280;24008;42.664;23.372;2024-03-23T03:11:30;94778.34;;;2.54;67.08
6136;BME280;24008;42.664;23.372;2024-03-23T03:13:57;94772.69;;;2.50;67.21
6136;BME280;24008;42.664;23.372;2024-03-23T03:16:27;94771.25;;;2.46;67.27
6136;BME280;24008;42.664;23.372;2024-03-23T03:18:52;94780.81;;;2.41;67.88
6136;BME280;24008;42.664;23.372;2024-03-23T03:21:19;94779.06;;;2.42;68.15
6136;BME280;24008;42.664;23.372;2024-03-23T03:23:45;94776.13;;;2.35;68.55
6136;BME280;24008;42.664;23.372;2024-03-23T03:26:13;94771.53;;;2.28;68.85
6136;BME280;24008;42.664;23.372;2024-03-23T03:28:38;94752.00;;;2.03;68.44
6136;BME280;24008;42.664;23.372;2024-03-23T03:31:05;94737.66;;;1.89;68.87
6136;BME280;24008;42.664;23.372;2024-03-23T03:33:32;94780.97;;;2.10;69.03
6136;BME280;24008;42.664;23.372;2024-03-23T03:35:59;94742.16;;;1.84;69.19
6136;BME280;24008;42.664;23.372;2024-03-23T03:38:25;94682.88;;;1.34;69.19
6136;BME280;24008;42.664;23.372;2024-03-23T03:40:51;94706.25;;;1.36;69.49
6136;BME280;24008;42.664;23.372;2024-03-23T03:43:18;94647.28;;;0.96;69.70
6136;BME280;24008;42.664;23.372;2024-03-23T03:45:51;94787.22;;;1.74;70.19
6136;BME280;24008;42.664;23.372;2024-03-23T03:48:17;94777.13;;;1.74;70.05
6136;BME280;24008;42.664;23.372;2024-03-23T03:50:45;94781.53;;;1.71;70.70
6136;BME280;24008;42.664;23.372;2024-03-23T03:53:11;94783.50;;;1.66;70.89
6136;BME280;24008;42.664;23.372;2024-03-23T03:55:37;94751.16;;;1.44;71.03
6136;BME280;24008;42.664;23.372;2024-03-23T03:58:03;94787.09;;;1.62;71.39
6136;BME280;24008;42.664;23.372;2024-03-23T04:00:31;94750.75;;;1.36;71.61
6136;BME280;24008;42.664;23.372;2024-03-23T04:02:57;94745.19;;;1.31;71.85
6136;BME280;24008;42.664;23.372;2024-03-23T04:05:23;94478.56;;;-0.36;71.95
6136;BME280;24008;42.664;23.372;2024-03-23T04:07:51;94778.28;;;1.55;72.52
6136;BME280;24008;42.664;23.372;2024-03-23T04:10:17;94743.28;;;1.34;72.71
6136;BME280;24008;42.664;23.372;2024-03-23T04:12:44;94739.44;;;1.29;72.75
6136;BME280;24008;42.664;23.372;2024-03-23T04:15:10;94784.19;;;1.54;72.74
6136;BME280;24008;42.664;23.372;2024-03-23T04:17:37;94729.38;;;1.13;73.25
6136;BME280;24008;42.664;23.372;2024-03-23T04:20:03;94712.66;;;1.12;72.90
6136;BME280;24008;42.664;23.372;2024-03-23T04:22:34;94745.72;;;1.36;73.03
6136;BME280;24008;42.664;23.372;2024-03-23T04:25:01;94795.53;;;1.61;73.22
6136;BME280;24008;42.664;23.372;2024-03-23T04:27:31;94754.19;;;1.35;73.36
6136;BME280;24008;42.664;23.372;2024-03-23T04:29:57;94557.94;;;0.14;73.05
6136;BME280;24008;42.664;23.372;2024-03-23T04:32:26;94793.31;;;1.56;73.60
6136;BME280;24008;42.664;23.372;2024-03-23T04:34:52;94790.22;;;1.51;73.25
6136;BME280;24008;42.664;23.372;2024-03-23T04:37:18;94750.09;;;1.18;73.50
6136;BME280;24008;42.664;23.372;2024-03-23T04:39:45;94757.28;;;1.24;73.59
6136;BME280;24008;42.664;23.372;2024-03-23T04:42:14;94808.41;;;1.56;74.06
6136;BME280;24008;42.664;23.372;2024-03-23T04:44:41;94800.41;;;1.64;73.52
6136;BME280;24008;42.664;23.372;2024-03-23T04:47:08;94768.94;;;1.57;73.25
6136;BME280;24008;42.664;23.372;2024-03-23T04:49:35;94796.31;;;1.77;72.44
6136;BME280;24008;42.664;23.372;2024-03-23T04:52:02;94798.22;;;1.88;72.15
6136;BME280;24008;42.664;23.372;2024-03-23T04:54:29;94801.13;;;1.96;72.01
6136;BME280;24008;42.664;23.372;2024-03-23T04:56:57;94805.81;;;2.02;71.91
6136;BME280;24008;42.664;23.372;2024-03-23T04:59:24;94810.41;;;2.09;71.83
6136;BME280;24008;42.664;23.372;2024-03-23T05:01:51;94811.50;;;2.20;71.29
6136;BME280;24008;42.664;23.372;2024-03-23T05:04:17;94760.78;;;1.96;70.67
6136;BME280;24008;42.664;23.372;2024-03-23T05:06:44;94655.72;;;1.39;69.71
6136;BME280;24008;42.664;23.372;2024-03-23T05:09:09;94705.94;;;1.71;69.19
6136;BME280;24008;42.664;23.372;2024-03-23T05:11:37;94802.41;;;2.45;68.62
6136;BME280;24008;42.664;23.372;2024-03-23T05:14:03;94803.41;;;2.57;68.51
6136;BME280;24008;42.664;23.372;2024-03-23T05:16:31;94805.03;;;2.58;68.74
6136;BME280;24008;42.664;23.372;2024-03-23T05:18:57;94803.88;;;2.64;68.56
6136;BME280;24008;42.664;23.372;2024-03-23T05:21:23;94482.91;;;0.82;67.70
6136;BME280;24008;42.664;23.372;2024-03-23T05:23:49;94802.47;;;3.01;68.00
6136;BME280;24008;42.664;23.372;2024-03-23T05:26:16;94670.19;;;2.76;67.39
6136;BME280;24008;42.664;23.372;2024-03-23T05:28:42;94769.34;;;4.48;65.68
6136;BME280;24008;42.664;23.372;2024-03-23T05:31:09;94712.44;;;5.14;62.59
6136;BME280;24008;42.664;23.372;2024-03-23T05:33:36;94784.97;;;6.32;59.13
6136;BME280;24008;42.664;23.372;2024-03-23T05:36:05;94796.31;;;6.84;57.14
6136;BME280;24008;42.664;23.372;2024-03-23T05:38:30;94781.59;;;7.10;55.45
6136;BME280;24008;42.664;23.372;2024-03-23T05:40:58;94783.28;;;7.95;53.20
6136;BME280;24008;42.664;23.372;2024-03-23T05:43:24;94769.09;;;8.75;50.72
6136;BME280;24008;42.664;23.372;2024-03-23T05:45:54;94790.22;;;9.84;48.63
6136;BME280;24008;42.664;23.372;2024-03-23T05:48:20;94797.91;;;10.69;46.36
6136;BME280;24008;42.664;23.372;2024-03-23T05:50:48;94772.25;;;11.43;43.99
6136;BME280;24008;42.664;23.372;2024-03-23T05:53:14;94757.13;;;12.03;41.98
6136;BME280;24008;42.664;23.372;2024-03-23T05:55:41;94788.22;;;12.86;40.16
6136;BME280;24008;42.664;23.372;2024-03-23T05:58:07;94789.94;;;13.11;38.91
6136;BME280;24008;42.664;23.372;2024-03-23T06:00:34;94785.19;;;13.75;37.80
6136;BME280;24008;42.664;23.372;2024-03-23T06:03:00;94796.75;;;13.95;37.75
6136;BME280;24008;42.664;23.372;2024-03-23T06:05:27;94722.72;;;13.74;36.91
6136;BME280;24008;42.664;23.372;2024-03-23T06:07:54;94795.47;;;14.72;36.62
6136;BME280;24008;42.664;23.372;2024-03-23T06:10:20;94763.31;;;14.60;35.62
6136;BME280;24008;42.664;23.372;2024-03-23T06:12:46;94784.53;;;14.29;36.63
6136;BME280;24008;42.664;23.372;2024-03-23T06:15:14;94726.53;;;12.53;38.93
6136;BME280;24008;42.664;23.372;2024-03-23T06:17:40;94790.53;;;12.63;39.24
6136;BME280;24008;42.664;23.372;2024-03-23T06:20:07;94768.16;;;12.47;37.93
6136;BME280;24008;42.664;23.372;2024-03-23T06:22:33;94781.81;;;12.30;39.93
6136;BME280;24008;42.664;23.372;2024-03-23T06:25:01;94782.72;;;12.73;39.06
6136;BME280;24008;42.664;23.372;2024-03-23T06:27:27;94761.31;;;13.24;39.30
6136;BME280;24008;42.664;23.372;2024-03-23T06:29:54;94732.81;;;13.51;37.47
6136;BME280;24008;42.664;23.372;2024-03-23T06:32:20;94782.88;;;13.55;38.55
6136;BME280;24008;42.664;23.372;2024-03-23T06:34:47;94778.47;;;14.22;37.26
6136;BME280;24008;42.664;23.372;2024-03-23T06:37:13;94752.59;;;14.07;37.83
6136;BME280;24008;42.664;23.372;2024-03-23T06:39:39;94782.94;;;14.53;37.09
6136;BME280;24008;42.664;23.372;2024-03-23T06:42:07;94788.88;;;14.69;36.64
6136;BME280;24008;42.664;23.372;2024-03-23T06:44:34;94753.56;;;14.94;35.92
6136;BME280;24008;42.664;23.372;2024-03-23T06:47:00;94764.56;;;15.50;35.14
6136;BME280;24008;42.664;23.372;2024-03-23T06:49:26;94795.78;;;15.86;34.67
6136;BME280;24008;42.664;23.372;2024-03-23T06:51:53;94788.50;;;15.90;34.38
6136;BME280;24008;42.664;23.372;2024-03-23T06:54:19;94791.34;;;15.95;34.38
6136;BME280;24008;42.664;23.372;2024-03-23T06:56:46;94786.09;;;16.48;33.62
6136;BME280;24008;42.664;23.372;2024-03-23T06:59:13;94784.00;;;16.67;33.36
6136;BME280;24008;42.664;23.372;2024-03-23T07:01:40;94790.09;;;17.18;32.70
6136;BME280;24008;42.664;23.372;2024-03-23T07:04:07;94785.25;;;17.29;32.19
6136;BME280;24008;42.664;23.372;2024-03-23T07:06:34;94737.28;;;17.56;32.04
6136;BME280;24008;42.664;23.372;2024-03-23T07:09:00;94766.53;;;17.99;31.42
6136;BME280;24008;42.664;23.372;2024-03-23T07:11:26;94709.16;;;17.47;31.59
6136;BME280;24008;42.664;23.372;2024-03-23T07:13:53;94775.22;;;17.05;32.25
6136;BME280;24008;42.664;23.372;2024-03-23T07:16:22;94766.56;;;16.69;33.37
6136;BME280;24008;42.664;23.372;2024-03-23T07:18:50;94776.47;;;16.65;33.03
6136;BME280;24008;42.664;23.372;2024-03-23T07:21:16;94774.44;;;16.38;34.85
6136;BME280;24008;42.664;23.372;2024-03-23T07:23:42;94766.00;;;16.58;33.75
6136;BME280;24008;42.664;23.372;2024-03-23T07:26:11;94765.19;;;16.66;33.35
6136;BME280;24008;42.664;23.372;2024-03-23T07:28:37;94764.97;;;16.68;33.31
6136;BME280;24008;42.664;23.372;2024-03-23T07:31:10;94754.75;;;16.89;32.50
6136;BME280;24008;42.664;23.372;2024-03-23T07:33:40;94698.66;;;16.68;32.86
6136;BME280;24008;42.664;23.372;2024-03-23T07:36:08;94756.59;;;17.60;31.93
6136;BME280;24008;42.664;23.372;2024-03-23T07:38:34;94753.03;;;17.61;31.84
6136;BME280;24008;42.664;23.372;2024-03-23T07:41:04;94749.50;;;17.48;31.59
6136;BME280;24008;42.664;23.372;2024-03-23T07:43:30;94754.56;;;17.56;31.65
6136;BME280;24008;42.664;23.372;2024-03-23T07:45:57;94752.97;;;17.55;31.43
6136;BME280;24008;42.664;23.372;2024-03-23T07:48:23;94749.56;;;17.69;31.51
6136;BME280;24008;42.664;23.372;2024-03-23T07:51:01;94717.28;;;17.65;30.96
6136;BME280;24008;42.664;23.372;2024-03-23T07:53:27;94734.03;;;18.12;32.05
6136;BME280;24008;42.664;23.372;2024-03-23T07:55:55;94738.66;;;18.72;31.20
6136;BME280;24008;42.664;23.372;2024-03-23T07:58:21;94739.06;;;19.10;29.73
6136;BME280;24008;42.664;23.372;2024-03-23T08:00:48;94746.94;;;19.30;29.31
6136;BME280;24008;42.664;23.372;2024-03-23T08:03:15;94549.00;;;18.16;29.10
6136;BME280;24008;42.664;23.372;2024-03-23T08:05:40;94749.69;;;19.76;28.46
6136;BME280;24008;42.664;23.372;2024-03-23T08:08:08;94704.66;;;19.29;28.82
6136;BME280;24008;42.664;23.372;2024-03-23T08:10:34;94745.81;;;19.04;29.04
6136;BME280;24008;42.664;23.372;2024-03-23T08:13:01;94718.50;;;18.12;31.01
6136;BME280;24008;42.664;23.372;2024-03-23T08:15:26;94745.28;;;18.53;31.11
6136;BME280;24008;42.664;23.372;2024-03-23T08:17:54;94668.16;;;18.08;30.49
6136;BME280;24008;42.664;23.372;2024-03-23T08:20:19;94740.53;;;18.85;30.08
6136;BME280;24008;42.664;23.372;2024-03-23T08:22:46;94684.41;;;18.57;30.15
6136;BME280;24008;42.664;23.372;2024-03-23T08:25:13;94744.47;;;19.63;28.75
6136;BME280;24008;42.664;23.372;2024-03-23T08:27:40;94715.56;;;19.66;29.16
6136;BME280;24008;42.664;23.372;2024-03-23T08:30:07;94737.75;;;20.01;27.96
6136;BME280;24008;42.664;23.372;2024-03-23T08:32:37;94730.59;;;20.03;28.40
6136;BME280;24008;42.664;23.372;2024-03-23T08:35:08;94727.22;;;20.49;27.69
6136;BME280;24008;42.664;23.372;2024-03-23T08:37:35;94707.59;;;20.73;27.66
6136;BME280;24008;42.664;23.372;2024-03-23T08:40:01;94720.34;;;20.81;26.91
6136;BME280;24008;42.664;23.372;2024-03-23T08:42:30;94721.81;;;21.28;26.32
6136;BME280;24008;42.664;23.372;2024-03-23T08:44:56;94715.56;;;21.42;26.21
6136;BME280;24008;42.664;23.372;2024-03-23T08:47:23;94572.47;;;20.28;26.70
6136;BME280;24008;42.664;23.372;2024-03-23T08:49:49;94657.06;;;20.62;26.53
6136;BME280;24008;42.664;23.372;2024-03-23T08:52:16;94675.97;;;20.82;26.73
6136;BME280;24008;42.664;23.372;2024-03-23T08:54:41;94699.25;;;20.38;27.26
6136;BME280;24008;42.664;23.372;2024-03-23T08:57:08;94705.63;;;20.62;26.87
6136;BME280;24008;42.664;23.372;2024-03-23T08:59:37;94688.34;;;20.94;26.33
6136;BME280;24008;42.664;23.372;2024-03-23T09:02:04;94698.25;;;21.23;26.91
6136;BME280;24008;42.664;23.372;2024-03-23T09:04:30;94696.00;;;20.75;28.03
6136;BME280;24008;42.664;23.372;2024-03-23T09:06:57;94662.25;;;21.13;27.17
6136;BME280;24008;42.664;23.372;2024-03-23T09:09:25;94680.53;;;20.94;26.40
6136;BME280;24008;42.664;23.372;2024-03-23T09:11:52;94675.03;;;20.57;27.64
6136;BME280;24008;42.664;23.372;2024-03-23T09:14:18;94682.28;;;20.35;26.62
6136;BME280;24008;42.664;23.372;2024-03-23T09:16:46;94583.06;;;19.34;27.93
6136;BME280;24008;42.664;23.372;2024-03-23T09:19:12;94668.69;;;20.27;28.29
6136;BME280;24008;42.664;23.372;2024-03-23T09:21:38;94668.34;;;20.94;26.49
6136;BME280;24008;42.664;23.372;2024-03-23T09:24:04;94662.75;;;21.42;25.45
6136;BME280;24008;42.664;23.372;2024-03-23T09:26:34;94642.31;;;21.07;25.58
6136;BME280;24008;42.664;23.372;2024-03-23T09:29:00;94657.97;;;21.39;25.76
6136;BME280;24008;42.664;23.372;2024-03-23T09:31:27;94452.50;;;20.20;25.61
6136;BME280;24008;42.664;23.372;2024-03-23T09:33:54;94646.59;;;21.33;25.68
6136;BME280;24008;42.664;23.372;2024-03-23T09:36:21;94641.22;;;21.28;25.31
6136;BME280;24008;42.664;23.372;2024-03-23T09:38:46;94621.00;;;21.37;24.71
6136;BME280;24008;42.664;23.372;2024-03-23T09:41:13;94639.13;;;21.43;25.58
6136;BME280;24008;42.664;23.372;2024-03-23T09:43:40;94609.72;;;20.60;27.25
6136;BME280;24008;42.664;23.372;2024-03-23T09:46:07;94607.94;;;20.54;27.30
6136;BME280;24008;42.664;23.372;2024-03-23T09:48:33;94627.50;;;20.57;26.86
6136;BME280;24008;42.664;23.372;2024-03-23T09:51:02;94615.66;;;21.25;26.07
6136;BME280;24008;42.664;23.372;2024-03-23T09:53:28;94577.50;;;20.74;26.61
6136;BME280;24008;42.664;23.372;2024-03-23T09:55:55;94617.28;;;20.68;27.52
6136;BME280;24008;42.664;23.372;2024-03-23T09:58:23;94614.72;;;20.55;26.13
6136;BME280;24008;42.664;23.372;2024-03-23T10:00:50;94579.50;;;20.72;27.66
6136;BME280;24008;42.664;23.372;2024-03-23T10:03:16;94604.47;;;21.18;25.95
6136;BME280;24008;42.664;23.372;2024-03-23T10:05:43;94598.28;;;21.50;25.44
6136;BME280;24008;42.664;23.372;2024-03-23T10:08:18;94579.06;;;21.51;25.52
6136;BME280;24008;42.664;23.372;2024-03-23T10:10:46;94559.53;;;21.42;25.72
6136;BME280;24008;42.664;23.372;2024-03-23T10:13:23;94531.81;;;21.61;25.04
6136;BME280;24008;42.664;23.372;2024-03-23T10:16:00;94536.41;;;21.84;25.64
6136;BME280;24008;42.664;23.372;2024-03-23T10:18:26;94498.91;;;21.48;26.27
6136;BME280;24008;42.664;23.372;2024-03-23T10:21:07;94547.59;;;21.84;25.51
6136;BME280;24008;42.664;23.372;2024-03-23T10:23:36;94568.78;;;22.31;24.94
6136;BME280;24008;42.664;23.372;2024-03-23T10:26:14;94575.06;;;22.42;24.65
6136;BME280;24008;42.664;23.372;2024-03-23T10:28:54;94566.00;;;22.62;24.23
6136;BME280;24008;42.664;23.372;2024-03-23T10:31:22;94562.63;;;22.44;24.82
6136;BME280;24008;42.664;23.372;2024-03-23T10:33:48;94511.22;;;21.78;25.03
6136;BME280;24008;42.664;23.372;2024-03-23T10:36:15;94552.47;;;21.74;25.46
6136;BME280;24008;42.664;23.372;2024-03-23T10:38:43;94314.22;;;20.12;27.04
6136;BME280;24008;42.664;23.372;2024-03-23T10:41:11;94542.50;;;21.71;25.97
6136;BME280;24008;42.664;23.372;2024-03-23T10:43:37;94523.06;;;21.74;25.18
6136;BME280;24008;42.664;23.372;2024-03-23T10:46:05;94500.50;;;21.68;24.92
6136;BME280;24008;42.664;23.372;2024-03-23T10:48:32;94527.69;;;22.15;24.61
6136;BME280;24008;42.664;23.372;2024-03-23T10:50:59;94522.41;;;22.03;24.81
6136;BME280;24008;42.664;23.372;2024-03-23T10:53:25;94502.75;;;22.07;24.98
6136;BME280;24008;42.664;23.372;2024-03-23T10:55:55;94515.03;;;22.37;23.91
6136;BME280;24008;42.664;23.372;2024-03-23T10:58:24;94509.09;;;22.11;23.47
6136;BME280;24008;42.664;23.372;2024-03-23T11:00:53;94494.44;;;22.17;23.66
6136;BME280;24008;42.664;23.372;2024-03-23T11:03:36;94486.78;;;21.79;24.51
6136;BME280;24008;42.664;23.372;2024-03-23T11:06:04;94468.13;;;21.14;24.65
6136;BME280;24008;42.664;23.372;2024-03-23T11:08:32;94476.59;;;21.03;25.09
6136;BME280;24008;42.664;23.372;2024-03-23T11:11:14;94477.47;;;20.97;25.46
6136;BME280;24008;42.664;23.372;2024-03-23T11:13:41;94475.06;;;20.95;25.82
6136;BME280;24008;42.664;23.372;2024-03-23T11:16:14;94428.78;;;20.54;26.75
6136;BME280;24008;42.664;23.372;2024-03-23T11:18:41;94465.94;;;20.03;26.60
6136;BME280;24008;42.664;23.372;2024-03-23T11:21:07;94453.97;;;19.96;27.60
6136;BME280;24008;42.664;23.372;2024-03-23T11:23:34;94417.00;;;19.56;28.12
6136;BME280;24008;42.664;23.372;2024-03-23T11:26:00;94413.75;;;19.80;27.24
6136;BME280;24008;42.664;23.372;2024-03-23T11:28:28;94441.81;;;19.96;25.80
6136;BME280;24008;42.664;23.372;2024-03-23T11:30:54;94436.53;;;19.45;26.24
6136;BME280;24008;42.664;23.372;2024-03-23T11:33:21;94440.13;;;18.85;26.63
6136;BME280;24008;42.664;23.372;2024-03-23T11:35:46;94433.59;;;18.15;27.64
6136;BME280;24008;42.664;23.372;2024-03-23T11:38:14;94402.41;;;17.75;28.38
6136;BME280;24008;42.664;23.372;2024-03-23T11:40:41;94386.47;;;17.65;28.38
6136;BME280;24008;42.664;23.372;2024-03-23T11:43:10;94424.53;;;17.84;28.25
6136;BME280;24008;42.664;23.372;2024-03-23T11:45:39;94421.31;;;17.76;28.69
6136;BME280;24008;42.664;23.372;2024-03-23T11:48:08;94390.28;;;17.41;29.00
6136;BME280;24008;42.664;23.372;2024-03-23T11:50:37;94379.25;;;17.19;29.28
6136;BME280;24008;42.664;23.372;2024-03-23T11:53:24;94403.63;;;17.45;29.05
6136;BME280;24008;42.664;23.372;2024-03-23T11:55:51;94397.66;;;17.38;29.01
6136;BME280;24008;42.664;23.372;2024-03-23T11:58:19;94392.25;;;17.33;29.03
6136;BME280;24008;42.664;23.372;2024-03-23T12:00:51;94365.97;;;17.22;29.16
6136;BME280;24008;42.664;23.372;2024-03-23T12:03:19;94380.69;;;17.28;30.22
6136;BME280;24008;42.664;23.372;2024-03-23T12:05:50;94371.19;;;17.36;29.30
6136;BME280;24008;42.664;23.372;2024-03-23T12:08:22;94365.97;;;17.22;29.86
6136;BME280;24008;42.664;23.372;2024-03-23T12:10:50;94362.84;;;17.34;29.46
6136;BME280;24008;42.664;23.372;2024-03-23T12:13:19;94357.94;;;17.11;29.64
6136;BME280;24008;42.664;23.372;2024-03-23T12:15:45;94319.13;;;16.70;30.13
6136;BME280;24008;42.664;23.372;2024-03-23T12:18:14;94312.88;;;16.57;29.94
6136;BME280;24008;42.664;23.372;2024-03-23T12:20:40;94350.56;;;16.80;29.96
6136;BME280;24008;42.664;23.372;2024-03-23T12:23:08;94337.88;;;16.78;30.32
6136;BME280;24008;42.664;23.372;2024-03-23T12:25:35;94288.75;;;16.44;30.22
6136;BME280;24008;42.664;23.372;2024-03-23T12:28:02;94342.66;;;16.81;30.23
6136;BME280;24008;42.664;23.372;2024-03-23T12:30:27;94337.53;;;16.88;31.15
6136;BME280;24008;42.664;23.372;2024-03-23T12:32:54;94339.50;;;16.86;31.14
6136;BME280;24008;42.664;23.372;2024-03-23T12:35:21;94325.84;;;16.92;30.44
6136;BME280;24008;42.664;23.372;2024-03-23T12:37:48;94327.59;;;16.85;30.18
6136;BME280;24008;42.664;23.372;2024-03-23T12:40:14;94325.47;;;16.95;30.35
6136;BME280;24008;42.664;23.372;2024-03-23T12:42:41;94284.25;;;16.74;30.13
6136;BME280;24008;42.664;23.372;2024-03-23T12:45:07;94323.75;;;17.02;29.87
6136;BME280;24008;42.664;23.372;2024-03-23T12:47:34;94310.66;;;17.10;29.58
6136;BME280;24008;42.664;23.372;2024-03-23T12:50:00;94281.13;;;16.85;29.50
6136;BME280;24008;42.664;23.372;2024-03-23T12:52:28;94304.88;;;17.08;28.52
6136;BME280;24008;42.664;23.372;2024-03-23T12:54:55;94301.00;;;16.91;28.83
6136;BME280;24008;42.664;23.372;2024-03-23T12:57:23;94293.13;;;16.99;29.05
6136;BME280;24008;42.664;23.372;2024-03-23T12:59:50;94287.97;;;16.99;28.80
6136;BME280;24008;42.664;23.372;2024-03-23T13:02:18;94288.66;;;17.21;28.76
6136;BME280;24008;42.664;23.372;2024-03-23T13:04:45;94277.97;;;17.24;28.24
6136;BME280;24008;42.664;23.372;2024-03-23T13:07:12;94232.34;;;16.97;27.97
6136;BME280;24008;42.664;23.372;2024-03-23T13:09:39;94244.03;;;16.92;27.80
6136;BME280;24008;42.664;23.372;2024-03-23T13:12:07;94272.72;;;17.11;27.57
6136;BME280;24008;42.664;23.372;2024-03-23T13:14:33;94226.38;;;16.89;28.14
6136;BME280;24008;42.664;23.372;2024-03-23T13:17:00;94261.81;;;17.15;26.93
6136;BME280;24008;42.664;23.372;2024-03-23T13:19:27;94261.47;;;17.25;26.56
6136;BME280;24008;42.664;23.372;2024-03-23T13:21:56;94255.09;;;17.21;26.51
6136;BME280;24008;42.664;23.372;2024-03-23T13:24:22;94256.31;;;17.25;26.66
6136;BME280;24008;42.664;23.372;2024-03-23T13:26:51;94216.06;;;17.03;26.80
6136;BME280;24008;42.664;23.372;2024-03-23T13:29:18;94218.09;;;17.07;26.79
6136;BME280;24008;42.664;23.372;2024-03-23T13:31:45;94193.25;;;17.00;26.26
6136;BME280;24008;42.664;23.372;2024-03-23T13:34:11;94234.09;;;17.44;26.09
6136;BME280;24008;42.664;23.372;2024-03-23T13:36:38;94203.44;;;17.27;25.88
6136;BME280;24008;42.664;23.372;2024-03-23T13:39:04;94229.72;;;17.38;26.10
6136;BME280;24008;42.664;23.372;2024-03-23T13:41:37;94235.28;;;17.41;26.42
6136;BME280;24008;42.664;23.372;2024-03-23T13:44:05;94216.63;;;17.46;25.93
6136;BME280;24008;42.664;23.372;2024-03-23T13:46:32;94192.53;;;17.25;27.21
6136;BME280;24008;42.664;23.372;2024-03-23T13:48:58;94042.09;;;16.36;27.64
6136;BME280;24008;42.664;23.372;2024-03-23T13:51:25;94226.41;;;17.57;28.17
6136;BME280;24008;42.664;23.372;2024-03-23T13:53:52;94197.75;;;17.45;28.46
6136;BME280;24008;42.664;23.372;2024-03-23T13:56:19;94214.28;;;17.57;29.26
6136;BME280;24008;42.664;23.372;2024-03-23T13:58:45;94213.84;;;17.54;28.37